Aviation Digital Data Service (ADDS)

Output produced by METARs form (0853 UTC 18 February 2019)
found at http://www.aviationweather.gov/metar/data/
 
METAR text: KSYR 180846Z 08008KT 2 1/2SM -SN BR FEW021 OVC029 M06/M07 A2980 RMK AO2 P0001 T10561072
Conditions at: KSYR (SYRACUSE , NY, US) observed 0846 UTC 18 February 2019
Temperature: -5.6°C (22°F)
Dewpoint: -7.2°C (19°F) [RH = 88%]
Pressure (altimeter): 29.80 inches Hg (1009.2 mb)
Winds: from the E (80 degrees) at 9 MPH (8 knots; 4.1 m/s)
Visibility: 2.50 miles (4.02 km)
Ceiling: 2900 feet AGL
Clouds: few clouds at 2100 feet AGL
overcast cloud deck at 2900 feet AGL
Weather: -SN BR  (light snow, mist)

METAR text: KSYR 180837Z 07007KT 1 3/4SM -SN BR FEW021 OVC028 M06/M07 A2980 RMK AO2 P0000 T10561072
Conditions at: KSYR (SYRACUSE , NY, US) observed 0837 UTC 18 February 2019
Temperature: -5.6°C (22°F)
Dewpoint: -7.2°C (19°F) [RH = 88%]
Pressure (altimeter): 29.80 inches Hg (1009.2 mb)
Winds: from the ENE (70 degrees) at 8 MPH (7 knots; 3.6 m/s)
Visibility: 1.75 miles (2.82 km)
Ceiling: 2800 feet AGL
Clouds: few clouds at 2100 feet AGL
overcast cloud deck at 2800 feet AGL
Weather: -SN BR  (light snow, mist)

METAR text: KSYR 180816Z 07008KT 4SM -SN BR OVC028 M06/M07 A2980 RMK AO2 P0000 T10561072
Conditions at: KSYR (SYRACUSE , NY, US) observed 0816 UTC 18 February 2019
Temperature: -5.6°C (22°F)
Dewpoint: -7.2°C (19°F) [RH = 88%]
Pressure (altimeter): 29.80 inches Hg (1009.2 mb)
Winds: from the ENE (70 degrees) at 9 MPH (8 knots; 4.1 m/s)
Visibility: 4 miles ( 6 km)
Ceiling: 2800 feet AGL
Clouds: overcast cloud deck at 2800 feet AGL
Weather: -SN BR  (light snow, mist)

METAR text: KSYR 180754Z 07007KT 2SM -SN BR BKN023 OVC041 M06/M07 A2981 RMK AO2 SLP098 P0001 T10561067
Conditions at: KSYR (SYRACUSE , NY, US) observed 0754 UTC 18 February 2019
Temperature: -5.6°C (22°F)
Dewpoint: -6.7°C (20°F) [RH = 92%]
Pressure (altimeter): 29.81 inches Hg (1009.6 mb)
[Sea-level pressure: 1009.8 mb]
Winds: from the ENE (70 degrees) at 8 MPH (7 knots; 3.6 m/s)
Visibility: 2.00 miles (3.22 km)
Ceiling: 2300 feet AGL
Clouds: broken clouds at 2300 feet AGL
overcast cloud deck at 4100 feet AGL
Weather: -SN BR  (light snow, mist)

METAR text: KSYR 180720Z 07009KT 2 1/2SM -SN BR OVC026 M06/M07 A2983 RMK AO2 P0000 T10561067
Conditions at: KSYR (SYRACUSE , NY, US) observed 0720 UTC 18 February 2019
Temperature: -5.6°C (22°F)
Dewpoint: -6.7°C (20°F) [RH = 92%]
Pressure (altimeter): 29.83 inches Hg (1010.2 mb)
Winds: from the ENE (70 degrees) at 10 MPH (9 knots; 4.6 m/s)
Visibility: 2.50 miles (4.02 km)
Ceiling: 2600 feet AGL
Clouds: overcast cloud deck at 2600 feet AGL
Weather: -SN BR  (light snow, mist)

METAR text: KSYR 180708Z 07010KT 2SM -SN BR OVC019 M06/M07 A2984 RMK AO2 P0000 T10561067
Conditions at: KSYR (SYRACUSE , NY, US) observed 0708 UTC 18 February 2019
Temperature: -5.6°C (22°F)
Dewpoint: -6.7°C (20°F) [RH = 92%]
Pressure (altimeter): 29.84 inches Hg (1010.6 mb)
Winds: from the ENE (70 degrees) at 12 MPH (10 knots; 5.1 m/s)
Visibility: 2.00 miles (3.22 km)
Ceiling: 1900 feet AGL
Clouds: overcast cloud deck at 1900 feet AGL
Weather: -SN BR  (light snow, mist)

METAR text: KSYR 180654Z 07009KT 1 1/4SM -SN BR OVC018 M06/M07 A2984 RMK AO2 SLP106 P0002 T10561067
Conditions at: KSYR (SYRACUSE , NY, US) observed 0654 UTC 18 February 2019
Temperature: -5.6°C (22°F)
Dewpoint: -6.7°C (20°F) [RH = 92%]
Pressure (altimeter): 29.84 inches Hg (1010.6 mb)
[Sea-level pressure: 1010.6 mb]
Winds: from the ENE (70 degrees) at 10 MPH (9 knots; 4.6 m/s)
Visibility: 1.25 miles (2.01 km)
Ceiling: 1800 feet AGL
Clouds: overcast cloud deck at 1800 feet AGL
Weather: -SN BR  (light snow, mist)

METAR text: KSYR 180646Z 07009KT 1SM R28/P6000FT -SN BR VV018 M06/M07 A2983 RMK AO2 P0002 T10561067
Conditions at: KSYR (SYRACUSE , NY, US) observed 0646 UTC 18 February 2019
Temperature: -5.6°C (22°F)
Dewpoint: -6.7°C (20°F) [RH = 92%]
Pressure (altimeter): 29.83 inches Hg (1010.2 mb)
Winds: from the ENE (70 degrees) at 10 MPH (9 knots; 4.6 m/s)
Visibility: 1.00 miles (1.61 km)
Ceiling: indefinite ceiling with vertical visibility of 1800 feet AGL
Clouds: obscured sky
Weather: -SN BR  (light snow, mist)

METAR text: KSYR 180630Z 07010KT 1 3/4SM -SN BR OVC029 M05/M07 A2984 RMK AO2 P0001 T10501067
Conditions at: KSYR (SYRACUSE , NY, US) observed 0630 UTC 18 February 2019
Temperature: -5.0°C (23°F)
Dewpoint: -6.7°C (20°F) [RH = 88%]
Pressure (altimeter): 29.84 inches Hg (1010.6 mb)
Winds: from the ENE (70 degrees) at 12 MPH (10 knots; 5.1 m/s)
Visibility: 1.75 miles (2.82 km)
Ceiling: 2900 feet AGL
Clouds: overcast cloud deck at 2900 feet AGL
Weather: -SN BR  (light snow, mist)

METAR text: KSYR 180624Z 07009KT 2SM -SN BR OVC032 M05/M07 A2984 RMK AO2 P0001 T10501067
Conditions at: KSYR (SYRACUSE , NY, US) observed 0624 UTC 18 February 2019
Temperature: -5.0°C (23°F)
Dewpoint: -6.7°C (20°F) [RH = 88%]
Pressure (altimeter): 29.84 inches Hg (1010.6 mb)
Winds: from the ENE (70 degrees) at 10 MPH (9 knots; 4.6 m/s)
Visibility: 2.00 miles (3.22 km)
Ceiling: 3200 feet AGL
Clouds: overcast cloud deck at 3200 feet AGL
Weather: -SN BR  (light snow, mist)

METAR text: KSYR 180601Z 07010KT 4SM -SN BR OVC037 M05/M07 A2985 RMK AO2 P0000 T10501067
Conditions at: KSYR (SYRACUSE , NY, US) observed 0601 UTC 18 February 2019
Temperature: -5.0°C (23°F)
Dewpoint: -6.7°C (20°F) [RH = 88%]
Pressure (altimeter): 29.85 inches Hg (1010.9 mb)
Winds: from the ENE (70 degrees) at 12 MPH (10 knots; 5.1 m/s)
Visibility: 4 miles ( 6 km)
Ceiling: 3700 feet AGL
Clouds: overcast cloud deck at 3700 feet AGL
Weather: -SN BR  (light snow, mist)

METAR text: KSYR 180554Z 07010KT 4SM -SN BR OVC028 M05/M06 A2985 RMK AO2 SLP111 4/005 P0002 60002 T10501061 11028 21050 56022
Conditions at: KSYR (SYRACUSE , NY, US) observed 0554 UTC 18 February 2019
Temperature: -5.0°C (23°F)
Dewpoint: -6.1°C (21°F) [RH = 92%]
Pressure (altimeter): 29.85 inches Hg (1010.9 mb)
[Sea-level pressure: 1011.1 mb]
Winds: from the ENE (70 degrees) at 12 MPH (10 knots; 5.1 m/s)
Visibility: 4 miles ( 6 km)
Ceiling: 2800 feet AGL
Clouds: overcast cloud deck at 2800 feet AGL
Weather: -SN BR  (light snow, mist)

METAR text: KSYR 180549Z 07010KT 3SM -SN BR OVC027 M05/M06 A2985 RMK AO2 P0002
Conditions at: KSYR (SYRACUSE , NY, US) observed 0549 UTC 18 February 2019
Temperature: -5.0°C (23°F)
Dewpoint: -6.0°C (21°F) [RH = 93%]
Pressure (altimeter): 29.85 inches Hg (1010.9 mb)
Winds: from the ENE (70 degrees) at 12 MPH (10 knots; 5.1 m/s)
Visibility: 3 miles ( 5 km)
Ceiling: 2700 feet AGL
Clouds: overcast cloud deck at 2700 feet AGL
Weather: -SN BR  (light snow, mist)

METAR text: KSYR 180542Z 07010KT 1 1/4SM -SN BR OVC019 M05/M07 A2985 RMK AO2 P0002 T10501067
Conditions at: KSYR (SYRACUSE , NY, US) observed 0542 UTC 18 February 2019
Temperature: -5.0°C (23°F)
Dewpoint: -6.7°C (20°F) [RH = 88%]
Pressure (altimeter): 29.85 inches Hg (1010.9 mb)
Winds: from the ENE (70 degrees) at 12 MPH (10 knots; 5.1 m/s)
Visibility: 1.25 miles (2.01 km)
Ceiling: 1900 feet AGL
Clouds: overcast cloud deck at 1900 feet AGL
Weather: -SN BR  (light snow, mist)

METAR text: KSYR 180518Z 06008KT 1 3/4SM -SN BR OVC022 M04/M06 A2987 RMK AO2 P0001 T10441061
Conditions at: KSYR (SYRACUSE , NY, US) observed 0518 UTC 18 February 2019
Temperature: -4.4°C (24°F)
Dewpoint: -6.1°C (21°F) [RH = 88%]
Pressure (altimeter): 29.87 inches Hg (1011.6 mb)
Winds: from the ENE (60 degrees) at 9 MPH (8 knots; 4.1 m/s)
Visibility: 1.75 miles (2.82 km)
Ceiling: 2200 feet AGL
Clouds: overcast cloud deck at 2200 feet AGL
Weather: -SN BR  (light snow, mist)

METAR text: KSYR 180458Z 07009KT 1 1/4SM -SN BR OVC018 M04/M07 A2987 RMK AO2 P0001 T10441067
Conditions at: KSYR (SYRACUSE , NY, US) observed 0458 UTC 18 February 2019
Temperature: -4.4°C (24°F)
Dewpoint: -6.7°C (20°F) [RH = 84%]
Pressure (altimeter): 29.87 inches Hg (1011.6 mb)
Winds: from the ENE (70 degrees) at 10 MPH (9 knots; 4.6 m/s)
Visibility: 1.25 miles (2.01 km)
Ceiling: 1800 feet AGL
Clouds: overcast cloud deck at 1800 feet AGL
Weather: -SN BR  (light snow, mist)

METAR text: KSYR 180454Z 07008KT 1 1/4SM -SN BR OVC021 M04/M07 A2987 RMK AO2 SLP118 P0000 T10441067 410221128
Conditions at: KSYR (SYRACUSE , NY, US) observed 0454 UTC 18 February 2019
Temperature: -4.4°C (24°F)
Dewpoint: -6.7°C (20°F) [RH = 84%]
Pressure (altimeter): 29.87 inches Hg (1011.6 mb)
[Sea-level pressure: 1011.8 mb]
Winds: from the ENE (70 degrees) at 9 MPH (8 knots; 4.1 m/s)
Visibility: 1.25 miles (2.01 km)
Ceiling: 2100 feet AGL
Clouds: overcast cloud deck at 2100 feet AGL
Weather: -SN BR  (light snow, mist)

METAR text: KSYR 180446Z 08008KT 1 1/4SM -SN OVC023 M04/M07 A2988 RMK AO2 P0000 T10441072
Conditions at: KSYR (SYRACUSE , NY, US) observed 0446 UTC 18 February 2019
Temperature: -4.4°C (24°F)
Dewpoint: -7.2°C (19°F) [RH = 81%]
Pressure (altimeter): 29.88 inches Hg (1011.9 mb)
Winds: from the E (80 degrees) at 9 MPH (8 knots; 4.1 m/s)
Visibility: 1.25 miles (2.01 km)
Ceiling: 2300 feet AGL
Clouds: overcast cloud deck at 2300 feet AGL
Weather: -SN  (light snow)

METAR text: KSYR 180440Z 08008KT 2SM -SN OVC029 M04/M07 A2988 RMK AO2 P0000 T10391072
Conditions at: KSYR (SYRACUSE , NY, US) observed 0440 UTC 18 February 2019
Temperature: -3.9°C (25°F)
Dewpoint: -7.2°C (19°F) [RH = 78%]
Pressure (altimeter): 29.88 inches Hg (1011.9 mb)
Winds: from the E (80 degrees) at 9 MPH (8 knots; 4.1 m/s)
Visibility: 2.00 miles (3.22 km)
Ceiling: 2900 feet AGL
Clouds: overcast cloud deck at 2900 feet AGL
Weather: -SN  (light snow)

METAR text: KSYR 180354Z 08007KT 9SM -SN OVC044 M04/M08 A2990 RMK AO2 SLP126 P0000 T10391083
Conditions at: KSYR (SYRACUSE , NY, US) observed 0354 UTC 18 February 2019
Temperature: -3.9°C (25°F)
Dewpoint: -8.3°C (17°F) [RH = 71%]
Pressure (altimeter): 29.90 inches Hg (1012.6 mb)
[Sea-level pressure: 1012.6 mb]
Winds: from the E (80 degrees) at 8 MPH (7 knots; 3.6 m/s)
Visibility: 9 miles (14 km)
Ceiling: 4400 feet AGL
Clouds: overcast cloud deck at 4400 feet AGL
Weather: -SN  (light snow)

METAR text: KSYR 180254Z 06006KT 9SM -SN OVC046 M03/M09 A2992 RMK AO2 SLP135 P0000 60000 T10331089 56020
Conditions at: KSYR (SYRACUSE , NY, US) observed 0254 UTC 18 February 2019
Temperature: -3.3°C (26°F)
Dewpoint: -8.9°C (16°F) [RH = 65%]
Pressure (altimeter): 29.92 inches Hg (1013.3 mb)
[Sea-level pressure: 1013.5 mb]
Winds: from the ENE (60 degrees) at 7 MPH (6 knots; 3.1 m/s)
Visibility: 9 miles (14 km)
Ceiling: 4600 feet AGL
Clouds: overcast cloud deck at 4600 feet AGL
Weather: -SN  (light snow)

METAR text: KSYR 180154Z 36004KT 9SM -SN OVC037 M04/M09 A2994 RMK AO2 SNB27 SLP142 P0000 T10391094
Conditions at: KSYR (SYRACUSE , NY, US) observed 0154 UTC 18 February 2019
Temperature: -3.9°C (25°F)
Dewpoint: -9.4°C (15°F) [RH = 66%]
Pressure (altimeter): 29.94 inches Hg (1014.0 mb)
[Sea-level pressure: 1014.2 mb]
Winds: from the N (360 degrees) at 5 MPH (4 knots; 2.1 m/s)
Visibility: 9 miles (14 km)
Ceiling: 3700 feet AGL
Clouds: overcast cloud deck at 3700 feet AGL
Weather: -SN  (light snow)

METAR text: KSYR 180054Z 36005KT 10SM OVC047 M03/M10 A2993 RMK AO2 SLP139 T10331100
Conditions at: KSYR (SYRACUSE , NY, US) observed 0054 UTC 18 February 2019
Temperature: -3.3°C (26°F)
Dewpoint: -10.0°C (14°F) [RH = 60%]
Pressure (altimeter): 29.93 inches Hg (1013.6 mb)
[Sea-level pressure: 1013.9 mb]
Winds: from the N (360 degrees) at 6 MPH (5 knots; 2.6 m/s)
Visibility: 10 or more miles (16+ km)
Ceiling: 4700 feet AGL
Clouds: overcast cloud deck at 4700 feet AGL
Weather: no significant weather observed at this time

METAR text: KSYR 172354Z 03004KT 10SM OVC085 M03/M12 A2998 RMK AO2 SLP155 4/004 T10281117 11022 21039 55010
Conditions at: KSYR (SYRACUSE , NY, US) observed 2354 UTC 17 February 2019
Temperature: -2.8°C (27°F)
Dewpoint: -11.7°C (11°F) [RH = 50%]
Pressure (altimeter): 29.98 inches Hg (1015.3 mb)
[Sea-level pressure: 1015.5 mb]
Winds: from the NNE (30 degrees) at 5 MPH (4 knots; 2.1 m/s)
Visibility: 10 or more miles (16+ km)
Ceiling: 8500 feet AGL
Clouds: overcast cloud deck at 8500 feet AGL
Weather: no significant weather observed at this time

METAR text: KSYR 172254Z 06004KT 10SM BKN095 OVC150 M03/M11 A2997 RMK AO2 SLP154 T10281111
Conditions at: KSYR (SYRACUSE , NY, US) observed 2254 UTC 17 February 2019
Temperature: -2.8°C (27°F)
Dewpoint: -11.1°C (12°F) [RH = 53%]
Pressure (altimeter): 29.97 inches Hg (1015.0 mb)
[Sea-level pressure: 1015.4 mb]
Winds: from the ENE (60 degrees) at 5 MPH (4 knots; 2.1 m/s)
Visibility: 10 or more miles (16+ km)
Ceiling: 9500 feet AGL
Clouds: broken clouds at 9500 feet AGL
overcast cloud deck at 15000 feet AGL
Weather: no significant weather observed at this time

METAR text: KSYR 172154Z 02006KT 10SM BKN100 OVC200 M03/M12 A3000 RMK AO2 SLP164 T10281122
Conditions at: KSYR (SYRACUSE , NY, US) observed 2154 UTC 17 February 2019
Temperature: -2.8°C (27°F)
Dewpoint: -12.2°C (10°F) [RH = 48%]
Pressure (altimeter): 30.00 inches Hg (1016.0 mb)
[Sea-level pressure: 1016.4 mb]
Winds: from the NNE (20 degrees) at 7 MPH (6 knots; 3.1 m/s)
Visibility: 10 or more miles (16+ km)
Ceiling: 10000 feet AGL
Clouds: broken clouds at 10000 feet AGL
overcast cloud deck at 20000 feet AGL
Weather: no significant weather observed at this time

METAR text: KSYR 172054Z 03007KT 10SM BKN120 BKN200 M03/M12 A3001 RMK AO2 SLP166 T10331117 56040
Conditions at: KSYR (SYRACUSE , NY, US) observed 2054 UTC 17 February 2019
Temperature: -3.3°C (26°F)
Dewpoint: -11.7°C (11°F) [RH = 52%]
Pressure (altimeter): 30.01 inches Hg (1016.3 mb)
[Sea-level pressure: 1016.6 mb]
Winds: from the NNE (30 degrees) at 8 MPH (7 knots; 3.6 m/s)
Visibility: 10 or more miles (16+ km)
Ceiling: 12000 feet AGL
Clouds: broken clouds at 12000 feet AGL
broken clouds at 20000 feet AGL
Weather: no significant weather observed at this time

METAR text: KSYR 171954Z 04004KT 10SM FEW140 SCT180 BKN250 M03/M12 A3004 RMK AO2 SLP175 SCT V BKN T10281117
Conditions at: KSYR (SYRACUSE , NY, US) observed 1954 UTC 17 February 2019
Temperature: -2.8°C (27°F)
Dewpoint: -11.7°C (11°F) [RH = 50%]
Pressure (altimeter): 30.04 inches Hg (1017.4 mb)
[Sea-level pressure: 1017.5 mb]
Winds: from the NE (40 degrees) at 5 MPH (4 knots; 2.1 m/s)
Visibility: 10 or more miles (16+ km)
Ceiling: 25000 feet AGL
Clouds: few clouds at 14000 feet AGL
scattered clouds at 18000 feet AGL
broken clouds at 25000 feet AGL
Weather: no significant weather observed at this time

METAR text: KSYR 171854Z 04004KT 10SM FEW160 FEW200 SCT250 M03/M12 A3007 RMK AO2 PRESFR SLP186 T10281122
Conditions at: KSYR (SYRACUSE , NY, US) observed 1854 UTC 17 February 2019
Temperature: -2.8°C (27°F)
Dewpoint: -12.2°C (10°F) [RH = 48%]
Pressure (altimeter): 30.07 inches Hg (1018.4 mb)
[Sea-level pressure: 1018.6 mb]
Winds: from the NE (40 degrees) at 5 MPH (4 knots; 2.1 m/s)
Visibility: 10 or more miles (16+ km)
Ceiling: at least 12,000 feet AGL
Clouds: few clouds at 16000 feet AGL
few clouds at 20000 feet AGL
scattered clouds at 25000 feet AGL
Weather: no significant weather observed at this time

METAR text: KSYR 171754Z COR 00000KT 10SM FEW020 SCT160 BKN250 M03/M12 A3013 RMK AO2 SLP206 4/004 933010 T10331122 11033 21128 56013
Conditions at: KSYR (SYRACUSE , NY, US) observed 1754 UTC 17 February 2019
Temperature: -3.3°C (26°F)
Dewpoint: -12.2°C (10°F) [RH = 50%]
Pressure (altimeter): 30.13 inches Hg (1020.4 mb)
[Sea-level pressure: 1020.6 mb]
Winds: calm
Visibility: 10 or more miles (16+ km)
Ceiling: 25000 feet AGL
Clouds: few clouds at 2000 feet AGL
scattered clouds at 16000 feet AGL
broken clouds at 25000 feet AGL
Weather: no significant weather observed at this time

METAR text: KSYR 171654Z 00000KT 10SM FEW016 SCT200 BKN250 M05/M11 A3014 RMK AO2 SLP208 T10501111
Conditions at: KSYR (SYRACUSE , NY, US) observed 1654 UTC 17 February 2019
Temperature: -5.0°C (23°F)
Dewpoint: -11.1°C (12°F) [RH = 62%]
Pressure (altimeter): 30.14 inches Hg (1020.7 mb)
[Sea-level pressure: 1020.8 mb]
Winds: calm
Visibility: 10 or more miles (16+ km)
Ceiling: 25000 feet AGL
Clouds: few clouds at 1600 feet AGL
scattered clouds at 20000 feet AGL
broken clouds at 25000 feet AGL
Weather: no significant weather observed at this time

METAR text: KSYR 171554Z 00000KT 10SM FEW014 FEW200 SCT250 M06/M11 A3015 RMK AO2 SLP214 T10611111
Conditions at: KSYR (SYRACUSE , NY, US) observed 1554 UTC 17 February 2019
Temperature: -6.1°C (21°F)
Dewpoint: -11.1°C (12°F) [RH = 68%]
Pressure (altimeter): 30.15 inches Hg (1021.1 mb)
[Sea-level pressure: 1021.4 mb]
Winds: calm
Visibility: 10 or more miles (16+ km)
Ceiling: at least 12,000 feet AGL
Clouds: few clouds at 1400 feet AGL
few clouds at 20000 feet AGL
scattered clouds at 25000 feet AGL
Weather: no significant weather observed at this time

METAR text: KSYR 171454Z 00000KT 10SM FEW030 FEW100 SCT250 M08/M12 A3017 RMK AO2 SLP220 T10781122 50001
Conditions at: KSYR (SYRACUSE , NY, US) observed 1454 UTC 17 February 2019
Temperature: -7.8°C (18°F)
Dewpoint: -12.2°C (10°F) [RH = 71%]
Pressure (altimeter): 30.17 inches Hg (1021.8 mb)
[Sea-level pressure: 1022.0 mb]
Winds: calm
Visibility: 10 or more miles (16+ km)
Ceiling: at least 12,000 feet AGL
Clouds: few clouds at 3000 feet AGL
few clouds at 10000 feet AGL
scattered clouds at 25000 feet AGL
Weather: no significant weather observed at this time

METAR text: KSYR 171354Z 00000KT 10SM FEW030 FEW200 SCT250 M11/M14 A3019 RMK AO2 SLP228 SCT V BKN T11061139
Conditions at: KSYR (SYRACUSE , NY, US) observed 1354 UTC 17 February 2019
Temperature: -10.6°C (13°F)
Dewpoint: -13.9°C ( 7°F) [RH = 77%]
Pressure (altimeter): 30.19 inches Hg (1022.4 mb)
[Sea-level pressure: 1022.8 mb]
Winds: calm
Visibility: 10 or more miles (16+ km)
Ceiling: at least 12,000 feet AGL
Clouds: few clouds at 3000 feet AGL
few clouds at 20000 feet AGL
scattered clouds at 25000 feet AGL
Weather: no significant weather observed at this time

METAR text: KSYR 171254Z 00000KT 10SM FEW040 SCT250 M11/M14 A3019 RMK AO2 SLP226 T11111139
Conditions at: KSYR (SYRACUSE , NY, US) observed 1254 UTC 17 February 2019
Temperature: -11.1°C (12°F)
Dewpoint: -13.9°C ( 7°F) [RH = 80%]
Pressure (altimeter): 30.19 inches Hg (1022.4 mb)
[Sea-level pressure: 1022.6 mb]
Winds: calm
Visibility: 10 or more miles (16+ km)
Ceiling: at least 12,000 feet AGL
Clouds: few clouds at 4000 feet AGL
scattered clouds at 25000 feet AGL
Weather: no significant weather observed at this time

METAR text: KSYR 171154Z COR 00000KT 10SM CLR M12/M15 A3017 RMK AO2 SLP221 4/004 T11221150 11067 21122 53013
Conditions at: KSYR (SYRACUSE , NY, US) observed 1154 UTC 17 February 2019
Temperature: -12.2°C (10°F)
Dewpoint: -15.0°C ( 5°F) [RH = 80%]
Pressure (altimeter): 30.17 inches Hg (1021.8 mb)
[Sea-level pressure: 1022.1 mb]
Winds: calm
Visibility: 10 or more miles (16+ km)
Ceiling: at least 12,000 feet AGL
Clouds: sky clear below 12,000 feet AGL
Weather: no significant weather observed at this time

METAR text: KSYR 171054Z 00000KT 10SM FEW200 M12/M14 A3015 RMK AO2 SLP213 T11171144
Conditions at: KSYR (SYRACUSE , NY, US) observed 1054 UTC 17 February 2019
Temperature: -11.7°C (11°F)
Dewpoint: -14.4°C ( 6°F) [RH = 80%]
Pressure (altimeter): 30.15 inches Hg (1021.1 mb)
[Sea-level pressure: 1021.3 mb]
Winds: calm
Visibility: 10 or more miles (16+ km)
Ceiling: at least 12,000 feet AGL
Clouds: few clouds at 20000 feet AGL
Weather: no significant weather observed at this time

METAR text: KSYR 170954Z 34005KT 10SM CLR M12/M13 A3013 RMK AO2 SLP208 T11171133
Conditions at: KSYR (SYRACUSE , NY, US) observed 0954 UTC 17 February 2019
Temperature: -11.7°C (11°F)
Dewpoint: -13.3°C ( 8°F) [RH = 88%]
Pressure (altimeter): 30.13 inches Hg (1020.4 mb)
[Sea-level pressure: 1020.8 mb]
Winds: from the NNW (340 degrees) at 6 MPH (5 knots; 2.6 m/s)
Visibility: 10 or more miles (16+ km)
Ceiling: at least 12,000 feet AGL
Clouds: sky clear below 12,000 feet AGL
Weather: no significant weather observed at this time

METAR text: KSYR 170854Z 33004KT 10SM FEW200 M11/M12 A3013 RMK AO2 SLP206 T11061122 53009
Conditions at: KSYR (SYRACUSE , NY, US) observed 0854 UTC 17 February 2019
Temperature: -10.6°C (13°F)
Dewpoint: -12.2°C (10°F) [RH = 88%]
Pressure (altimeter): 30.13 inches Hg (1020.4 mb)
[Sea-level pressure: 1020.6 mb]
Winds: from the NNW (330 degrees) at 5 MPH (4 knots; 2.1 m/s)
Visibility: 10 or more miles (16+ km)
Ceiling: at least 12,000 feet AGL
Clouds: few clouds at 20000 feet AGL
Weather: no significant weather observed at this time

METAR text: KSYR 170754Z 36004KT 10SM FEW034 SCT200 M09/M11 A3012 RMK AO2 SLP204 T10941111
Conditions at: KSYR (SYRACUSE , NY, US) observed 0754 UTC 17 February 2019
Temperature: -9.4°C (15°F)
Dewpoint: -11.1°C (12°F) [RH = 87%]
Pressure (altimeter): 30.12 inches Hg (1020.1 mb)
[Sea-level pressure: 1020.4 mb]
Winds: from the N (360 degrees) at 5 MPH (4 knots; 2.1 m/s)
Visibility: 10 or more miles (16+ km)
Ceiling: at least 12,000 feet AGL
Clouds: few clouds at 3400 feet AGL
scattered clouds at 20000 feet AGL
Weather: no significant weather observed at this time

METAR text: KSYR 170654Z 32004KT 10SM FEW034 FEW200 M08/M11 A3010 RMK AO2 SLP198 T10831106
Conditions at: KSYR (SYRACUSE , NY, US) observed 0654 UTC 17 February 2019
Temperature: -8.3°C (17°F)
Dewpoint: -10.6°C (13°F) [RH = 83%]
Pressure (altimeter): 30.10 inches Hg (1019.4 mb)
[Sea-level pressure: 1019.8 mb]
Winds: from the NW (320 degrees) at 5 MPH (4 knots; 2.1 m/s)
Visibility: 10 or more miles (16+ km)
Ceiling: at least 12,000 feet AGL
Clouds: few clouds at 3400 feet AGL
few clouds at 20000 feet AGL
Weather: no significant weather observed at this time

METAR text: KSYR 170554Z 25007KT 10SM SCT034 M07/M10 A3010 RMK AO2 SLP196 4/004 60000 T10671100 11044 21072 51006
Conditions at: KSYR (SYRACUSE , NY, US) observed 0554 UTC 17 February 2019
Temperature: -6.7°C (20°F)
Dewpoint: -10.0°C (14°F) [RH = 77%]
Pressure (altimeter): 30.10 inches Hg (1019.4 mb)
[Sea-level pressure: 1019.6 mb]
Winds: from the WSW (250 degrees) at 8 MPH (7 knots; 3.6 m/s)
Visibility: 10 or more miles (16+ km)
Ceiling: at least 12,000 feet AGL
Clouds: scattered clouds at 3400 feet AGL
Weather: no significant weather observed at this time

METAR text: KSYR 170454Z 24008KT 10SM OVC034 M06/M09 A3010 RMK AO2 SLP195 T10561094 410221072
Conditions at: KSYR (SYRACUSE , NY, US) observed 0454 UTC 17 February 2019
Temperature: -5.6°C (22°F)
Dewpoint: -9.4°C (15°F) [RH = 75%]
Pressure (altimeter): 30.10 inches Hg (1019.4 mb)
[Sea-level pressure: 1019.5 mb]
Winds: from the WSW (240 degrees) at 9 MPH (8 knots; 4.1 m/s)
Visibility: 10 or more miles (16+ km)
Ceiling: 3400 feet AGL
Clouds: overcast cloud deck at 3400 feet AGL
Weather: no significant weather observed at this time

METAR text: KSYR 170354Z 24004KT 10SM BKN200 M07/M10 A3009 RMK AO2 SLP191 T10671100
Conditions at: KSYR (SYRACUSE , NY, US) observed 0354 UTC 17 February 2019
Temperature: -6.7°C (20°F)
Dewpoint: -10.0°C (14°F) [RH = 77%]
Pressure (altimeter): 30.09 inches Hg (1019.0 mb)
[Sea-level pressure: 1019.1 mb]
Winds: from the WSW (240 degrees) at 5 MPH (4 knots; 2.1 m/s)
Visibility: 10 or more miles (16+ km)
Ceiling: 20000 feet AGL
Clouds: broken clouds at 20000 feet AGL
Weather: no significant weather observed at this time

METAR text: KSYR 170254Z 23004KT 10SM BKN100 M06/M09 A3009 RMK AO2 SLP190 60000 T10611094 53005
Conditions at: KSYR (SYRACUSE , NY, US) observed 0254 UTC 17 February 2019
Temperature: -6.1°C (21°F)
Dewpoint: -9.4°C (15°F) [RH = 77%]
Pressure (altimeter): 30.09 inches Hg (1019.0 mb)
[Sea-level pressure: 1019.0 mb]
Winds: from the SW (230 degrees) at 5 MPH (4 knots; 2.1 m/s)
Visibility: 10 or more miles (16+ km)
Ceiling: 10000 feet AGL
Clouds: broken clouds at 10000 feet AGL
Weather: no significant weather observed at this time

METAR text: KSYR 170154Z 26004KT 10SM SCT030 BKN100 M05/M09 A3008 RMK AO2 SLP188 T10501094
Conditions at: KSYR (SYRACUSE , NY, US) observed 0154 UTC 17 February 2019
Temperature: -5.0°C (23°F)
Dewpoint: -9.4°C (15°F) [RH = 71%]
Pressure (altimeter): 30.08 inches Hg (1018.7 mb)
[Sea-level pressure: 1018.8 mb]
Winds: from the W (260 degrees) at 5 MPH (4 knots; 2.1 m/s)
Visibility: 10 or more miles (16+ km)
Ceiling: 10000 feet AGL
Clouds: scattered clouds at 3000 feet AGL
broken clouds at 10000 feet AGL
Weather: no significant weather observed at this time

METAR text: KSYR 170054Z 28005KT 10SM OVC028 M05/M09 A3007 RMK AO2 SNE2356 SLP184 P0000 T10501089
Conditions at: KSYR (SYRACUSE , NY, US) observed 0054 UTC 17 February 2019
Temperature: -5.0°C (23°F)
Dewpoint: -8.9°C (16°F) [RH = 74%]
Pressure (altimeter): 30.07 inches Hg (1018.4 mb)
[Sea-level pressure: 1018.4 mb]
Winds: from the W (280 degrees) at 6 MPH (5 knots; 2.6 m/s)
Visibility: 10 or more miles (16+ km)
Ceiling: 2800 feet AGL
Clouds: overcast cloud deck at 2800 feet AGL
Weather: no significant weather observed at this time

METAR text: KSYR 170002Z 29005KT 10SM SCT023 OVC029 M05/M08 A3007 RMK AO2 SNE2356 P0000 T10501078
Conditions at: KSYR (SYRACUSE , NY, US) observed 0002 UTC 17 February 2019
Temperature: -5.0°C (23°F)
Dewpoint: -7.8°C (18°F) [RH = 81%]
Pressure (altimeter): 30.07 inches Hg (1018.4 mb)
Winds: from the WNW (290 degrees) at 6 MPH (5 knots; 2.6 m/s)
Visibility: 10 or more miles (16+ km)
Ceiling: 2900 feet AGL
Clouds: scattered clouds at 2300 feet AGL
overcast cloud deck at 2900 feet AGL
Weather: no significant weather observed at this time

METAR text: KSYR 162354Z 29006KT 7SM -SN FEW024 OVC031 M05/M08 A3007 RMK AO2 SLP185 4/005 P0000 60000 T10501078 11033 21050 51017
Conditions at: KSYR (SYRACUSE , NY, US) observed 2354 UTC 16 February 2019
Temperature: -5.0°C (23°F)
Dewpoint: -7.8°C (18°F) [RH = 81%]
Pressure (altimeter): 30.07 inches Hg (1018.4 mb)
[Sea-level pressure: 1018.5 mb]
Winds: from the WNW (290 degrees) at 7 MPH (6 knots; 3.1 m/s)
Visibility: 7 miles (11 km)
Ceiling: 3100 feet AGL
Clouds: few clouds at 2400 feet AGL
overcast cloud deck at 3100 feet AGL
Weather: -SN  (light snow)

METAR text: KSYR 162254Z 29008KT 6SM -SN SCT023 BKN033 M05/M08 A3006 RMK AO2 SLP181 P0000 T10501078
Conditions at: KSYR (SYRACUSE , NY, US) observed 2254 UTC 16 February 2019
Temperature: -5.0°C (23°F)
Dewpoint: -7.8°C (18°F) [RH = 81%]
Pressure (altimeter): 30.06 inches Hg (1018.0 mb)
[Sea-level pressure: 1018.1 mb]
Winds: from the WNW (290 degrees) at 9 MPH (8 knots; 4.1 m/s)
Visibility: 6 miles (10 km)
Ceiling: 3300 feet AGL
Clouds: scattered clouds at 2300 feet AGL
broken clouds at 3300 feet AGL
Weather: -SN  (light snow)

METAR text: KSYR 162154Z 28011KT 10SM -SN BKN032 M04/M08 A3004 RMK AO2 SNB18 SLP177 P0000 T10441083
Conditions at: KSYR (SYRACUSE , NY, US) observed 2154 UTC 16 February 2019
Temperature: -4.4°C (24°F)
Dewpoint: -8.3°C (17°F) [RH = 74%]
Pressure (altimeter): 30.04 inches Hg (1017.4 mb)
[Sea-level pressure: 1017.7 mb]
Winds: from the W (280 degrees) at 13 MPH (11 knots; 5.7 m/s)
Visibility: 10 or more miles (16+ km)
Ceiling: 3200 feet AGL
Clouds: broken clouds at 3200 feet AGL
Weather: -SN  (light snow)

METAR text: KSYR 162054Z 29013KT 9SM SCT028 BKN033 M04/M09 A3002 RMK AO2 SNB1957E50 SLP168 P0000 60000 T10391094 51013
Conditions at: KSYR (SYRACUSE , NY, US) observed 2054 UTC 16 February 2019
Temperature: -3.9°C (25°F)
Dewpoint: -9.4°C (15°F) [RH = 66%]
Pressure (altimeter): 30.02 inches Hg (1016.7 mb)
[Sea-level pressure: 1016.8 mb]
Winds: from the WNW (290 degrees) at 15 MPH (13 knots; 6.7 m/s)
Visibility: 9 miles (14 km)
Ceiling: 3300 feet AGL
Clouds: scattered clouds at 2800 feet AGL
broken clouds at 3300 feet AGL
Weather: no significant weather observed at this time

Forecast for: KSYR (SYRACUSE , NY, US)
Text: KSYR 180835Z 1809/1906 07006KT 3SM -SN BR SCT015 OVC025
Forecast period: 0900 to 1100 UTC 18 February 2019
Forecast type: FROM: standard forecast or significant change
Winds: from the ENE (70 degrees) at 7 MPH (6 knots; 3.1 m/s)
Visibility: 3 miles (5 km)
Ceiling: 2500 feet AGL
Clouds: scattered clouds at 1500 feet AGL
overcast cloud deck at 2500 feet AGL
Weather: -SN BR  (light snow, mist)
Text: FM181100 34007KT 2SM -SN BR OVC015
Forecast period: 1100 to 1800 UTC 18 February 2019
Forecast type: FROM: standard forecast or significant change
Winds: from the NNW (340 degrees) at 8 MPH (7 knots; 3.6 m/s)
Visibility: 2.00 miles (3.22 km)
Ceiling: 1500 feet AGL
Clouds: overcast cloud deck at 1500 feet AGL
Weather: -SN BR  (light snow, mist)
Text: TEMPO 1811/1815 3/4SM -SN BR FEW008 OVC012
Forecast period: 1100 to 1500 UTC 18 February 2019
Forecast type: TEMPORARY: The following changes expected for less than half the time period
Visibility: 0.75 miles (1.21 km)
Ceiling: 1200 feet AGL
Clouds: few clouds at 800 feet AGL
overcast cloud deck at 1200 feet AGL
Weather: -SN BR  (light snow, mist)
Text: FM181800 31014KT 4SM -SHSN BR OVC018
Forecast period: 1800 to 2000 UTC 18 February 2019
Forecast type: FROM: standard forecast or significant change
Winds: from the NW (310 degrees) at 16 MPH (14 knots; 7.2 m/s)
Visibility: 4 miles (6 km)
Ceiling: 1800 feet AGL
Clouds: overcast cloud deck at 1800 feet AGL
Weather: -SHSN BR  (light snow showers, mist)
Text: FM182000 31012KT 6SM -SHSN BR OVC025
Forecast period: 2000 to 2200 UTC 18 February 2019
Forecast type: FROM: standard forecast or significant change
Winds: from the NW (310 degrees) at 14 MPH (12 knots; 6.2 m/s)
Visibility: 6 miles (10 km)
Ceiling: 2500 feet AGL
Clouds: overcast cloud deck at 2500 feet AGL
Weather: -SHSN BR  (light snow showers, mist)
Text: FM182200 31009KT P6SM SCT025 OVC035
Forecast period: 2200 UTC 18 February 2019 to 0600 UTC 19 February 2019
Forecast type: FROM: standard forecast or significant change
Winds: from the NW (310 degrees) at 10 MPH (9 knots; 4.6 m/s)
Visibility: 6 or more miles 10+ km)
Ceiling: 3500 feet AGL
Clouds: scattered clouds at 2500 feet AGL
overcast cloud deck at 3500 feet AGL
Weather: no significant weather forecast for this period